sensor_id;sensor_type;location;lat;lon;timestamp;P1;durP1;ratioP1;P2;durP2;ratioP2
36355;SDS011;22384;54.302;18.596;2023-12-07T00:13:17;115.63;;;33.58;;
36355;SDS011;22384;54.302;18.596;2023-12-07T00:15:53;77.32;;;27.90;;
36355;SDS011;22384;54.302;18.596;2023-12-07T00:18:24;88.28;;;27.20;;
36355;SDS011;22384;54.302;18.596;2023-12-07T00:20:56;64.28;;;25.20;;
36355;SDS011;22384;54.302;18.596;2023-12-07T00:23:25;92.18;;;30.73;;
36355;SDS011;22384;54.302;18.596;2023-12-07T00:35:22;74.05;;;27.38;;
36355;SDS011;22384;54.302;18.596;2023-12-07T01:41:13;82.97;;;28.33;;
36355;SDS011;22384;54.302;18.596;2023-12-07T01:47:08;88.70;;;31.00;;
36355;SDS011;22384;54.302;18.596;2023-12-07T02:47:57;116.10;;;34.58;;
36355;SDS011;22384;54.302;18.596;2023-12-07T06:39:30;56.28;;;21.60;;
36355;SDS011;22384;54.302;18.596;2023-12-07T06:41:58;55.95;;;21.58;;
36355;SDS011;22384;54.302;18.596;2023-12-07T06:44:27;51.20;;;20.33;;
36355;SDS011;22384;54.302;18.596;2023-12-07T06:46:56;56.45;;;23.42;;
36355;SDS011;22384;54.302;18.596;2023-12-07T06:52:28;73.22;;;24.10;;
36355;SDS011;22384;54.302;18.596;2023-12-07T06:55:02;73.85;;;26.10;;
36355;SDS011;22384;54.302;18.596;2023-12-07T06:57:32;59.15;;;22.90;;
36355;SDS011;22384;54.302;18.596;2023-12-07T07:00:04;72.90;;;26.02;;
36355;SDS011;22384;54.302;18.596;2023-12-07T07:02:36;71.80;;;25.95;;
36355;SDS011;22384;54.302;18.596;2023-12-07T07:05:02;76.63;;;27.63;;
36355;SDS011;22384;54.302;18.596;2023-12-07T07:07:29;73.47;;;25.33;;
36355;SDS011;22384;54.302;18.596;2023-12-07T07:09:56;68.65;;;25.55;;
36355;SDS011;22384;54.302;18.596;2023-12-07T07:12:22;57.08;;;22.15;;
36355;SDS011;22384;54.302;18.596;2023-12-07T07:14:48;58.83;;;23.13;;
36355;SDS011;22384;54.302;18.596;2023-12-07T07:17:15;61.03;;;24.67;;
36355;SDS011;22384;54.302;18.596;2023-12-07T07:19:41;62.45;;;25.10;;
36355;SDS011;22384;54.302;18.596;2023-12-07T07:22:07;59.25;;;22.63;;
36355;SDS011;22384;54.302;18.596;2023-12-07T07:24:34;60.03;;;24.52;;
36355;SDS011;22384;54.302;18.596;2023-12-07T07:27:00;57.97;;;22.35;;
36355;SDS011;22384;54.302;18.596;2023-12-07T07:29:26;66.75;;;23.40;;
36355;SDS011;22384;54.302;18.596;2023-12-07T07:31:52;58.72;;;24.42;;
36355;SDS011;22384;54.302;18.596;2023-12-07T07:34:19;62.53;;;23.73;;
36355;SDS011;22384;54.302;18.596;2023-12-07T07:42:59;54.97;;;22.35;;
36355;SDS011;22384;54.302;18.596;2023-12-07T07:45:25;59.53;;;23.05;;
36355;SDS011;22384;54.302;18.596;2023-12-07T07:47:51;52.50;;;21.13;;
36355;SDS011;22384;54.302;18.596;2023-12-07T07:50:23;57.30;;;22.08;;
36355;SDS011;22384;54.302;18.596;2023-12-07T07:52:58;68.30;;;24.23;;
36355;SDS011;22384;54.302;18.596;2023-12-07T07:55:30;54.38;;;22.08;;
36355;SDS011;22384;54.302;18.596;2023-12-07T07:58:02;61.70;;;26.35;;
36355;SDS011;22384;54.302;18.596;2023-12-07T08:00:29;60.85;;;24.20;;
36355;SDS011;22384;54.302;18.596;2023-12-07T08:06:22;120.38;;;44.60;;
36355;SDS011;22384;54.302;18.596;2023-12-07T09:47:26;55.22;;;22.48;;
36355;SDS011;22384;54.302;18.596;2023-12-07T09:49:55;61.05;;;24.48;;
36355;SDS011;22384;54.302;18.596;2023-12-07T09:52:21;60.65;;;25.65;;
36355;SDS011;22384;54.302;18.596;2023-12-07T09:54:48;58.17;;;23.77;;
36355;SDS011;22384;54.302;18.596;2023-12-07T09:57:15;71.93;;;26.17;;
36355;SDS011;22384;54.302;18.596;2023-12-07T09:59:41;58.60;;;24.70;;
36355;SDS011;22384;54.302;18.596;2023-12-07T10:02:07;54.58;;;24.23;;
36355;SDS011;22384;54.302;18.596;2023-12-07T10:04:33;57.95;;;24.02;;
36355;SDS011;22384;54.302;18.596;2023-12-07T10:07:07;60.08;;;27.25;;
36355;SDS011;22384;54.302;18.596;2023-12-07T10:09:40;79.00;;;29.83;;
36355;SDS011;22384;54.302;18.596;2023-12-07T10:12:10;65.28;;;26.95;;
36355;SDS011;22384;54.302;18.596;2023-12-07T10:14:45;62.03;;;25.27;;
36355;SDS011;22384;54.302;18.596;2023-12-07T10:17:11;61.25;;;25.35;;
36355;SDS011;22384;54.302;18.596;2023-12-07T10:22:41;59.05;;;24.38;;
36355;SDS011;22384;54.302;18.596;2023-12-07T10:25:09;55.30;;;24.08;;
36355;SDS011;22384;54.302;18.596;2023-12-07T10:27:35;60.38;;;24.63;;
36355;SDS011;22384;54.302;18.596;2023-12-07T10:30:04;71.47;;;26.85;;
36355;SDS011;22384;54.302;18.596;2023-12-07T10:32:42;52.42;;;23.52;;
36355;SDS011;22384;54.302;18.596;2023-12-07T10:35:11;61.10;;;23.50;;
36355;SDS011;22384;54.302;18.596;2023-12-07T10:43:54;61.10;;;24.90;;
36355;SDS011;22384;54.302;18.596;2023-12-07T10:46:21;57.45;;;23.63;;
36355;SDS011;22384;54.302;18.596;2023-12-07T10:48:51;60.50;;;24.30;;
36355;SDS011;22384;54.302;18.596;2023-12-07T10:51:41;55.83;;;23.42;;
36355;SDS011;22384;54.302;18.596;2023-12-07T10:54:06;57.60;;;22.63;;
36355;SDS011;22384;54.302;18.596;2023-12-07T10:56:46;50.92;;;23.33;;
36355;SDS011;22384;54.302;18.596;2023-12-07T11:11:55;84.57;;;35.47;;
36355;SDS011;22384;54.302;18.596;2023-12-07T11:14:32;101.57;;;37.20;;
36355;SDS011;22384;54.302;18.596;2023-12-07T11:20:48;78.22;;;33.53;;
36355;SDS011;22384;54.302;18.596;2023-12-07T11:23:30;74.80;;;29.75;;
36355;SDS011;22384;54.302;18.596;2023-12-07T11:25:59;85.97;;;35.00;;
36355;SDS011;22384;54.302;18.596;2023-12-07T11:28:38;80.65;;;35.17;;
36355;SDS011;22384;54.302;18.596;2023-12-07T11:31:14;81.80;;;35.05;;
36355;SDS011;22384;54.302;18.596;2023-12-07T11:33:41;75.78;;;32.55;;
36355;SDS011;22384;54.302;18.596;2023-12-07T11:57:44;61.45;;;24.27;;
36355;SDS011;22384;54.302;18.596;2023-12-07T14:46:59;55.95;;;22.70;;
36355;SDS011;22384;54.302;18.596;2023-12-07T14:49:43;67.60;;;24.83;;
36355;SDS011;22384;54.302;18.596;2023-12-07T14:52:09;65.25;;;28.52;;
36355;SDS011;22384;54.302;18.596;2023-12-07T14:54:43;66.03;;;28.88;;
36355;SDS011;22384;54.302;18.596;2023-12-07T14:57:12;64.75;;;28.30;;
36355;SDS011;22384;54.302;18.596;2023-12-07T14:59:38;56.75;;;24.95;;
36355;SDS011;22384;54.302;18.596;2023-12-07T15:02:05;58.78;;;25.70;;
36355;SDS011;22384;54.302;18.596;2023-12-07T15:04:34;61.33;;;27.20;;
36355;SDS011;22384;54.302;18.596;2023-12-07T15:07:01;63.38;;;26.70;;
36355;SDS011;22384;54.302;18.596;2023-12-07T15:09:37;63.00;;;27.70;;
36355;SDS011;22384;54.302;18.596;2023-12-07T15:12:13;66.28;;;26.85;;
36355;SDS011;22384;54.302;18.596;2023-12-07T15:18:03;56.45;;;24.35;;
36355;SDS011;22384;54.302;18.596;2023-12-07T15:20:38;57.97;;;25.65;;
36355;SDS011;22384;54.302;18.596;2023-12-07T15:23:07;61.30;;;26.23;;
36355;SDS011;22384;54.302;18.596;2023-12-07T15:25:38;57.03;;;25.02;;
36355;SDS011;22384;54.302;18.596;2023-12-07T15:28:07;69.30;;;26.38;;
36355;SDS011;22384;54.302;18.596;2023-12-07T16:57:46;77.72;;;30.40;;
36355;SDS011;22384;54.302;18.596;2023-12-07T17:06:45;73.72;;;31.63;;
36355;SDS011;22384;54.302;18.596;2023-12-07T17:15:47;69.85;;;29.05;;
36355;SDS011;22384;54.302;18.596;2023-12-07T17:21:39;152.07;;;47.78;;
36355;SDS011;22384;54.302;18.596;2023-12-07T17:24:20;104.03;;;40.00;;
36355;SDS011;22384;54.302;18.596;2023-12-07T17:26:49;125.63;;;43.00;;
36355;SDS011;22384;54.302;18.596;2023-12-07T17:29:16;126.53;;;43.35;;
36355;SDS011;22384;54.302;18.596;2023-12-07T17:31:46;105.88;;;39.10;;
36355;SDS011;22384;54.302;18.596;2023-12-07T17:34:14;105.43;;;40.50;;
36355;SDS011;22384;54.302;18.596;2023-12-07T17:39:43;136.23;;;50.35;;
36355;SDS011;22384;54.302;18.596;2023-12-07T17:42:24;132.07;;;45.63;;
36355;SDS011;22384;54.302;18.596;2023-12-07T18:01:25;100.20;;;39.65;;
36355;SDS011;22384;54.302;18.596;2023-12-07T18:03:51;117.90;;;43.50;;
36355;SDS011;22384;54.302;18.596;2023-12-07T18:06:18;119.82;;;41.42;;
36355;SDS011;22384;54.302;18.596;2023-12-07T18:08:45;97.88;;;38.63;;
36355;SDS011;22384;54.302;18.596;2023-12-07T18:11:18;88.85;;;37.00;;
36355;SDS011;22384;54.302;18.596;2023-12-07T18:13:45;96.03;;;36.88;;
36355;SDS011;22384;54.302;18.596;2023-12-07T18:16:11;104.45;;;38.67;;
36355;SDS011;22384;54.302;18.596;2023-12-07T18:18:37;100.75;;;39.90;;
36355;SDS011;22384;54.302;18.596;2023-12-07T18:21:04;100.03;;;41.35;;
36355;SDS011;22384;54.302;18.596;2023-12-07T18:23:34;95.28;;;37.95;;
36355;SDS011;22384;54.302;18.596;2023-12-07T18:26:13;95.93;;;38.22;;
36355;SDS011;22384;54.302;18.596;2023-12-07T18:31:43;95.63;;;37.95;;
36355;SDS011;22384;54.302;18.596;2023-12-07T18:34:12;101.78;;;39.53;;
36355;SDS011;22384;54.302;18.596;2023-12-07T18:36:38;89.70;;;38.88;;
36355;SDS011;22384;54.302;18.596;2023-12-07T18:39:04;91.47;;;38.15;;
36355;SDS011;22384;54.302;18.596;2023-12-07T18:41:30;94.05;;;38.60;;
36355;SDS011;22384;54.302;18.596;2023-12-07T18:44:00;107.57;;;41.63;;
36355;SDS011;22384;54.302;18.596;2023-12-07T18:49:46;103.63;;;40.42;;
36355;SDS011;22384;54.302;18.596;2023-12-07T18:52:16;102.80;;;40.53;;
36355;SDS011;22384;54.302;18.596;2023-12-07T18:54:50;107.57;;;41.05;;
36355;SDS011;22384;54.302;18.596;2023-12-07T18:57:33;103.53;;;41.85;;
36355;SDS011;22384;54.302;18.596;2023-12-07T19:00:22;110.55;;;41.88;;
36355;SDS011;22384;54.302;18.596;2023-12-07T19:02:49;119.30;;;44.40;;
36355;SDS011;22384;54.302;18.596;2023-12-07T19:22:11;260.40;;;73.53;;
36355;SDS011;22384;54.302;18.596;2023-12-07T19:24:37;237.18;;;73.93;;
36355;SDS011;22384;54.302;18.596;2023-12-07T19:27:11;263.98;;;84.40;;
36355;SDS011;22384;54.302;18.596;2023-12-07T19:29:40;243.05;;;80.68;;
36355;SDS011;22384;54.302;18.596;2023-12-07T19:35:01;132.07;;;49.35;;
36355;SDS011;22384;54.302;18.596;2023-12-07T19:37:30;136.25;;;48.20;;
36355;SDS011;22384;54.302;18.596;2023-12-07T19:40:14;120.30;;;44.47;;
36355;SDS011;22384;54.302;18.596;2023-12-07T19:42:41;118.38;;;46.63;;
36355;SDS011;22384;54.302;18.596;2023-12-07T19:45:07;121.38;;;47.33;;
36355;SDS011;22384;54.302;18.596;2023-12-07T19:47:33;142.77;;;48.90;;
36355;SDS011;22384;54.302;18.596;2023-12-07T19:49:59;138.10;;;50.10;;
36355;SDS011;22384;54.302;18.596;2023-12-07T19:52:25;159.52;;;60.97;;
36355;SDS011;22384;54.302;18.596;2023-12-07T19:54:51;119.78;;;47.05;;
36355;SDS011;22384;54.302;18.596;2023-12-07T19:57:18;109.13;;;42.78;;
36355;SDS011;22384;54.302;18.596;2023-12-07T19:59:45;101.88;;;42.05;;
36355;SDS011;22384;54.302;18.596;2023-12-07T20:05:14;112.00;;;43.17;;
36355;SDS011;22384;54.302;18.596;2023-12-07T20:07:40;139.23;;;49.97;;
36355;SDS011;22384;54.302;18.596;2023-12-07T20:46:39;123.85;;;47.90;;
36355;SDS011;22384;54.302;18.596;2023-12-07T20:49:05;126.28;;;47.33;;
36355;SDS011;22384;54.302;18.596;2023-12-07T20:51:31;125.60;;;49.42;;
36355;SDS011;22384;54.302;18.596;2023-12-07T20:54:38;119.20;;;47.45;;
36355;SDS011;22384;54.302;18.596;2023-12-07T20:57:04;125.70;;;48.78;;
36355;SDS011;22384;54.302;18.596;2023-12-07T20:59:53;152.95;;;53.35;;
36355;SDS011;22384;54.302;18.596;2023-12-07T21:02:20;240.27;;;73.30;;
36355;SDS011;22384;54.302;18.596;2023-12-07T21:10:50;176.95;;;54.85;;
36355;SDS011;22384;54.302;18.596;2023-12-07T21:13:18;193.00;;;63.10;;
36355;SDS011;22384;54.302;18.596;2023-12-07T21:15:44;201.45;;;66.00;;
36355;SDS011;22384;54.302;18.596;2023-12-07T21:18:10;164.00;;;57.53;;
36355;SDS011;22384;54.302;18.596;2023-12-07T21:20:39;138.50;;;51.10;;
36355;SDS011;22384;54.302;18.596;2023-12-07T21:23:05;125.55;;;49.63;;
36355;SDS011;22384;54.302;18.596;2023-12-07T21:25:31;124.93;;;49.80;;
36355;SDS011;22384;54.302;18.596;2023-12-07T21:28:02;137.32;;;54.78;;
36355;SDS011;22384;54.302;18.596;2023-12-07T21:30:28;126.90;;;52.30;;
36355;SDS011;22384;54.302;18.596;2023-12-07T21:32:54;125.97;;;47.20;;
36355;SDS011;22384;54.302;18.596;2023-12-07T21:35:20;199.63;;;69.22;;
36355;SDS011;22384;54.302;18.596;2023-12-07T21:37:47;231.95;;;75.05;;
36355;SDS011;22384;54.302;18.596;2023-12-07T21:40:13;189.55;;;61.15;;
36355;SDS011;22384;54.302;18.596;2023-12-07T21:42:39;150.13;;;52.17;;
36355;SDS011;22384;54.302;18.596;2023-12-07T21:45:08;136.10;;;47.75;;
36355;SDS011;22384;54.302;18.596;2023-12-07T21:47:34;128.10;;;50.38;;
36355;SDS011;22384;54.302;18.596;2023-12-07T21:50:00;133.68;;;51.95;;
36355;SDS011;22384;54.302;18.596;2023-12-07T21:52:28;147.65;;;58.58;;
36355;SDS011;22384;54.302;18.596;2023-12-07T21:54:55;111.15;;;44.80;;
36355;SDS011;22384;54.302;18.596;2023-12-07T21:57:21;128.93;;;47.22;;
36355;SDS011;22384;54.302;18.596;2023-12-07T21:59:47;115.88;;;46.40;;
36355;SDS011;22384;54.302;18.596;2023-12-07T22:08:25;110.72;;;42.97;;
36355;SDS011;22384;54.302;18.596;2023-12-07T22:10:51;106.68;;;42.67;;
36355;SDS011;22384;54.302;18.596;2023-12-07T22:13:17;107.05;;;41.17;;
36355;SDS011;22384;54.302;18.596;2023-12-07T22:15:44;115.70;;;44.60;;
36355;SDS011;22384;54.302;18.596;2023-12-07T22:18:10;114.70;;;45.80;;
36355;SDS011;22384;54.302;18.596;2023-12-07T22:20:36;130.35;;;48.17;;
36355;SDS011;22384;54.302;18.596;2023-12-07T22:23:02;117.50;;;49.33;;
36355;SDS011;22384;54.302;18.596;2023-12-07T22:25:28;112.32;;;45.45;;
36355;SDS011;22384;54.302;18.596;2023-12-07T22:27:57;105.60;;;41.40;;
36355;SDS011;22384;54.302;18.596;2023-12-07T22:30:24;101.05;;;42.15;;
36355;SDS011;22384;54.302;18.596;2023-12-07T22:32:50;100.57;;;41.67;;
36355;SDS011;22384;54.302;18.596;2023-12-07T22:35:16;133.15;;;54.55;;
36355;SDS011;22384;54.302;18.596;2023-12-07T22:37:44;96.50;;;41.40;;
36355;SDS011;22384;54.302;18.596;2023-12-07T22:40:10;98.97;;;43.03;;
36355;SDS011;22384;54.302;18.596;2023-12-07T22:42:37;98.90;;;41.15;;
36355;SDS011;22384;54.302;18.596;2023-12-07T22:45:03;95.07;;;40.05;;
36355;SDS011;22384;54.302;18.596;2023-12-07T22:47:29;102.13;;;42.40;;
36355;SDS011;22384;54.302;18.596;2023-12-07T22:49:55;97.68;;;40.20;;
36355;SDS011;22384;54.302;18.596;2023-12-07T22:52:23;101.50;;;40.33;;
36355;SDS011;22384;54.302;18.596;2023-12-07T22:54:56;95.05;;;39.67;;
36355;SDS011;22384;54.302;18.596;2023-12-07T22:57:22;93.60;;;40.47;;
36355;SDS011;22384;54.302;18.596;2023-12-07T22:59:48;98.82;;;40.65;;
36355;SDS011;22384;54.302;18.596;2023-12-07T23:02:14;105.13;;;40.88;;
36355;SDS011;22384;54.302;18.596;2023-12-07T23:04:42;105.95;;;41.38;;
36355;SDS011;22384;54.302;18.596;2023-12-07T23:07:08;106.00;;;43.63;;
36355;SDS011;22384;54.302;18.596;2023-12-07T23:09:34;92.78;;;39.83;;
36355;SDS011;22384;54.302;18.596;2023-12-07T23:12:07;99.30;;;39.60;;
36355;SDS011;22384;54.302;18.596;2023-12-07T23:14:33;101.90;;;39.90;;
36355;SDS011;22384;54.302;18.596;2023-12-07T23:16:59;106.20;;;44.33;;
36355;SDS011;22384;54.302;18.596;2023-12-07T23:19:25;96.00;;;40.72;;
36355;SDS011;22384;54.302;18.596;2023-12-07T23:21:51;102.00;;;41.10;;
36355;SDS011;22384;54.302;18.596;2023-12-07T23:24:17;111.38;;;43.38;;
36355;SDS011;22384;54.302;18.596;2023-12-07T23:26:43;97.25;;;41.15;;
36355;SDS011;22384;54.302;18.596;2023-12-07T23:29:09;93.85;;;41.28;;
36355;SDS011;22384;54.302;18.596;2023-12-07T23:31:36;110.13;;;43.92;;
36355;SDS011;22384;54.302;18.596;2023-12-07T23:34:02;98.65;;;42.45;;
36355;SDS011;22384;54.302;18.596;2023-12-07T23:36:28;104.25;;;42.45;;
36355;SDS011;22384;54.302;18.596;2023-12-07T23:38:54;104.40;;;43.45;;
36355;SDS011;22384;54.302;18.596;2023-12-07T23:41:20;104.88;;;43.13;;
36355;SDS011;22384;54.302;18.596;2023-12-07T23:43:46;93.03;;;41.47;;
36355;SDS011;22384;54.302;18.596;2023-12-07T23:46:12;101.45;;;42.17;;
36355;SDS011;22384;54.302;18.596;2023-12-07T23:48:38;101.30;;;42.17;;
36355;SDS011;22384;54.302;18.596;2023-12-07T23:51:07;103.95;;;42.30;;
36355;SDS011;22384;54.302;18.596;2023-12-07T23:53:34;77.57;;;32.23;;
36355;SDS011;22384;54.302;18.596;2023-12-07T23:56:00;105.55;;;41.88;;
36355;SDS011;22384;54.302;18.596;2023-12-07T23:58:26;103.25;;;43.33;;
